Time;durP1;ratioP1;P1;durP2;ratioP2;P2;SDS_P1;SDS_P2;PMS_P1;PMS_P2;Temp;Humidity;BMP_temperature;BMP_pressure;BME280_temperature;BME280_humidity;BME280_pressure;Samples;Min_cycle;Max_cycle;Signal;HPM_P1;HPM_P2
2022/05/21 00:04:47;;;;;;;0.00;0.00;;;;;;;12.07;82.04;101875.41;10437184;28;20578;-83
2022/05/21 00:09:48;;;;;;;0.20;0.20;;;;;;;12.13;81.77;101872.19;10439841;28;20041;-84
2022/05/21 00:14:52;;;;;;;0.75;0.75;;;;;;;11.98;81.89;101868.25;10461075;28;20454;-84
2022/05/21 00:19:53;;;;;;;0.00;0.00;;;;;;;11.91;82.38;101881.72;10485013;28;20037;-83
2022/05/21 00:24:55;;;;;;;0.00;0.00;;;;;;;11.79;82.68;101881.28;10485598;28;20102;-83
2022/05/21 00:29:59;;;;;;;0.13;0.10;;;;;;;11.45;83.73;101872.28;10485183;28;20037;-85
2022/05/21 00:35:01;;;;;;;0.00;0.00;;;;;;;11.52;83.48;101869.09;10484936;28;20052;-84
2022/05/21 00:40:03;;;;;;;0.20;0.20;;;;;;;11.42;83.85;101866.19;10460438;28;20052;-83
2022/05/21 00:45:05;;;;;;;0.75;0.47;;;;;;;11.36;83.60;101871.09;10442556;28;20048;-84
2022/05/21 00:50:10;;;;;;;0.00;0.00;;;;;;;11.39;83.85;101860.03;10442763;28;20048;-83
2022/05/21 00:55:26;;;;;;;1.55;1.00;;;;;;;11.38;83.77;101858.28;10443182;28;20489;-84
2022/05/21 01:00:30;;;;;;;0.00;0.00;;;;;;;11.28;83.80;101857.06;10442521;28;20147;-84
2022/05/21 01:05:33;;;;;;;0.00;0.00;;;;;;;11.42;83.66;101865.31;10467196;28;20064;-82
2022/05/21 01:10:40;;;;;;;0.00;0.00;;;;;;;11.55;82.99;101866.66;10482712;28;20115;-83
2022/05/21 01:15:45;;;;;;;0.52;0.52;;;;;;;11.53;82.66;101870.88;10464718;28;20052;-84
2022/05/21 01:20:52;;;;;;;0.10;0.10;;;;;;;11.63;82.54;101870.41;10482585;28;20051;-83
2022/05/21 01:25:57;;;;;;;0.30;0.30;;;;;;;11.70;82.09;101867.22;10444587;28;20052;-83
2022/05/21 01:31:00;;;;;;;1.85;0.40;;;;;;;11.70;82.06;101862.06;10440938;28;20048;-83
2022/05/21 01:36:06;;;;;;;0.60;0.57;;;;;;;11.77;81.62;101852.81;10458848;28;20041;-83
2022/05/21 01:41:10;;;;;;;1.38;0.82;;;;;;;11.86;81.57;101847.13;10440457;28;20049;-84
2022/05/21 01:46:16;;;;;;;0.03;0.03;;;;;;;11.88;81.42;101846.34;10441130;28;20550;-83
2022/05/21 01:51:18;;;;;;;0.00;0.00;;;;;;;11.91;81.47;101840.41;10440379;28;20049;-83
2022/05/21 01:56:20;;;;;;;0.00;0.00;;;;;;;12.03;81.09;101850.31;10440170;28;20053;-83
2022/05/21 02:01:21;;;;;;;1.65;1.02;;;;;;;12.04;80.63;101840.03;10431618;28;20450;-83
2022/05/21 02:06:23;;;;;;;0.90;0.43;;;;;;;12.13;80.82;101833.44;10498495;28;20049;-82
2022/05/21 02:11:24;;;;;;;0.00;0.00;;;;;;;12.22;80.65;101836.34;10463780;28;20044;-83
2022/05/21 02:16:28;;;;;;;0.30;0.30;;;;;;;12.13;80.29;101838.59;10398776;28;20481;-83
2022/05/21 02:21:30;;;;;;;0.38;0.28;;;;;;;12.27;80.41;101839.94;10397835;28;20065;-83
2022/05/21 02:26:37;;;;;;;0.52;0.52;;;;;;;12.25;79.86;101831.25;10398244;28;20053;-83
2022/05/21 02:31:38;;;;;;;0.43;0.20;;;;;;;12.29;80.78;101838.31;10397226;28;20041;-83
2022/05/21 02:42:01;;;;;;;0.00;0.00;;;;;;;12.37;80.77;101829.13;10414869;28;20444;-83
2022/05/21 02:47:04;;;;;;;2.95;1.27;;;;;;;12.27;80.22;101829.63;10414563;28;20045;-82
2022/05/21 02:52:08;;;;;;;0.40;0.40;;;;;;;12.31;80.52;101826.31;10407036;28;20448;-83
2022/05/21 02:57:10;;;;;;;2.55;0.98;;;;;;;12.34;80.63;101831.59;10480149;28;20053;-83
2022/05/21 03:02:12;;;;;;;0.08;0.08;;;;;;;12.28;80.79;101820.19;10479197;28;20040;-83
2022/05/21 03:07:13;;;;;;;0.85;0.50;;;;;;;12.29;80.93;101825.38;10438628;28;20099;-83
2022/05/21 03:12:15;;;;;;;0.52;0.45;;;;;;;12.33;81.00;101829.81;10438652;28;20041;-83
2022/05/21 03:17:17;;;;;;;0.00;0.00;;;;;;;12.43;81.56;101830.13;10438726;28;20082;-83
2022/05/21 03:22:19;;;;;;;0.00;0.00;;;;;;;12.43;81.26;101830.13;10438012;28;20037;-82
2022/05/21 03:27:20;;;;;;;0.32;0.32;;;;;;;12.46;81.38;101825.06;10429610;28;20044;-84
2022/05/21 03:32:25;;;;;;;0.43;0.43;;;;;;;12.50;80.90;101822.66;10437243;28;20049;-83
2022/05/21 03:37:26;;;;;;;0.00;0.00;;;;;;;12.56;81.08;101827.13;10459823;28;20052;-82
2022/05/21 03:42:29;;;;;;;0.52;0.43;;;;;;;12.45;81.09;101829.34;10476146;28;20488;-84
2022/05/21 03:47:32;;;;;;;0.00;0.00;;;;;;;12.44;81.16;101837.94;10460026;28;20049;-82
2022/05/21 03:52:34;;;;;;;1.45;1.15;;;;;;;12.48;81.49;101838.91;10486815;28;20037;-83
2022/05/21 03:57:36;;;;;;;0.45;0.40;;;;;;;12.49;81.15;101840.66;10496810;28;20063;-83
2022/05/21 04:02:39;;;;;;;0.52;0.38;;;;;;;12.66;81.23;101843.78;10485773;28;20480;-84
2022/05/21 04:07:48;;;;;;;0.30;0.30;;;;;;;12.59;80.93;101847.91;10469290;28;20060;-83
2022/05/21 04:12:50;;;;;;;0.00;0.00;;;;;;;12.70;80.73;101848.25;10444422;28;20098;-83
2022/05/21 04:17:53;;;;;;;0.00;0.00;;;;;;;12.81;81.10;101853.78;10472238;28;20059;-83
2022/05/21 04:22:55;;;;;;;0.00;0.00;;;;;;;12.84;80.61;101866.81;10452274;28;20086;-83
2022/05/21 04:27:56;;;;;;;0.57;0.57;;;;;;;12.78;81.10;101864.00;10443321;28;20052;-82
2022/05/21 04:32:58;;;;;;;0.00;0.00;;;;;;;12.93;80.50;101871.38;10444412;28;20040;-82
2022/05/21 04:38:00;;;;;;;0.00;0.00;;;;;;;12.89;80.57;101867.81;10443264;28;20060;-81
2022/05/21 04:43:02;;;;;;;0.10;0.10;;;;;;;12.77;80.97;101872.63;10442959;28;20114;-82
2022/05/21 04:48:05;;;;;;;0.28;0.28;;;;;;;12.85;80.53;101871.13;10442873;28;20073;-82
2022/05/21 04:53:07;;;;;;;0.00;0.00;;;;;;;12.80;80.87;101868.44;10472232;28;20101;-81
2022/05/21 04:58:09;;;;;;;0.73;0.45;;;;;;;12.74;80.62;101888.88;10450708;28;20045;-84
2022/05/21 05:03:13;;;;;;;0.38;0.35;;;;;;;12.98;80.86;101894.00;10478487;28;20037;-82
2022/05/21 05:08:17;;;;;;;2.03;1.50;;;;;;;12.92;80.70;101900.66;10483697;28;20059;-84
2022/05/21 05:13:19;;;;;;;0.22;0.22;;;;;;;13.12;80.61;101906.47;10468246;28;20044;-83
2022/05/21 05:18:22;;;;;;;0.00;0.00;;;;;;;13.08;80.75;101909.78;10501296;28;20446;-83
2022/05/21 05:23:24;;;;;;;0.45;0.45;;;;;;;13.08;80.67;101914.97;10450844;28;20094;-84
2022/05/21 05:28:27;;;;;;;0.00;0.00;;;;;;;13.14;80.75;101920.34;10511291;28;20075;-83
2022/05/21 05:33:30;;;;;;;0.00;0.00;;;;;;;13.13;80.40;101924.63;10437462;28;20053;-83
2022/05/21 05:38:31;;;;;;;0.20;0.20;;;;;;;13.06;80.52;101921.81;10443942;28;20049;-83
2022/05/21 05:43:33;;;;;;;0.00;0.00;;;;;;;13.28;80.13;101924.25;10497126;28;20052;-83
2022/05/21 05:48:35;;;;;;;0.08;0.08;;;;;;;13.19;80.13;101918.78;10473184;28;20041;-82
2022/05/21 05:53:36;;;;;;;0.05;0.05;;;;;;;13.37;79.95;101927.94;10454187;28;20045;-82
2022/05/21 06:04:01;;;;;;;0.85;0.60;;;;;;;13.45;79.93;101926.50;10499015;28;20446;-83
2022/05/21 06:09:04;;;;;;;0.00;0.00;;;;;;;13.43;79.99;101925.59;10435510;28;20049;-82
2022/05/21 06:14:05;;;;;;;0.35;0.15;;;;;;;13.75;78.80;101934.31;10398315;28;20042;-82
2022/05/21 06:19:07;;;;;;;0.00;0.00;;;;;;;14.05;78.47;101943.78;10398327;28;20041;-82
2022/05/21 06:24:09;;;;;;;1.40;0.68;;;;;;;13.92;77.74;101950.34;10415890;28;20103;-82
2022/05/21 06:29:10;;;;;;;1.42;0.45;;;;;;;14.11;77.75;101945.69;10487589;28;20110;-82
2022/05/21 06:34:16;;;;;;;0.00;0.00;;;;;;;14.46;77.29;101942.28;10397129;28;20045;-82
2022/05/21 06:39:17;;;;;;;0.47;0.43;;;;;;;14.26;76.57;101942.63;10433256;28;20175;-83
2022/05/21 06:44:19;;;;;;;0.00;0.00;;;;;;;14.30;76.59;101952.22;10477844;28;20451;-83
2022/05/21 06:49:21;;;;;;;0.17;0.17;;;;;;;14.36;76.53;101956.72;10426236;28;20412;-84
2022/05/21 06:54:34;;;;;;;0.43;0.43;;;;;;;14.59;75.35;101958.22;10438420;28;20095;-82
2022/05/21 06:59:36;;;;;;;0.38;0.20;;;;;;;14.91;73.74;101947.81;10437467;28;20041;-83
2022/05/21 07:10:08;;;;;;;0.25;0.15;;;;;;;14.54;74.78;101972.78;10457145;28;20051;-82
2022/05/21 07:15:19;;;;;;;0.80;0.30;;;;;;;14.46;74.59;101968.19;10438721;28;20087;-81
2022/05/21 07:20:21;;;;;;;2.90;2.60;;;;;;;14.46;74.39;101974.28;10444380;28;20037;-82
2022/05/21 07:25:27;;;;;;;0.00;0.00;;;;;;;15.34;72.98;101967.84;10463893;28;20048;-82
2022/05/21 07:30:32;;;;;;;0.20;0.20;;;;;;;15.65;70.50;101972.00;10478020;28;20042;-83
2022/05/21 07:35:36;;;;;;;0.00;0.00;;;;;;;15.35;71.61;101974.78;10476140;28;20110;-83
2022/05/21 07:40:39;;;;;;;0.38;0.38;;;;;;;15.37;73.27;101980.91;10463451;28;20439;-82
2022/05/21 07:45:42;;;;;;;0.25;0.25;;;;;;;14.94;72.03;101982.44;10471457;28;20049;-82
2022/05/21 07:50:47;;;;;;;0.05;0.05;;;;;;;15.28;71.36;101978.97;10436376;28;20132;-82
2022/05/21 07:55:51;;;;;;;0.00;0.00;;;;;;;15.65;72.60;102002.31;10462388;28;20041;-83
2022/05/21 08:00:53;;;;;;;0.22;0.20;;;;;;;15.25;70.80;101993.59;10485941;28;20040;-83
2022/05/21 08:05:55;;;;;;;1.15;1.08;;;;;;;15.36;70.15;101992.13;10459952;28;20049;-82
2022/05/21 08:10:57;;;;;;;0.00;0.00;;;;;;;15.73;68.52;102005.97;10476746;28;20089;-82
2022/05/21 08:15:59;;;;;;;0.00;0.00;;;;;;;15.75;69.73;102012.03;10492470;28;20075;-83
2022/05/21 08:21:01;;;;;;;0.93;0.35;;;;;;;15.89;68.83;102012.41;10460673;28;20132;-82
2022/05/21 08:31:23;;;;;;;0.20;0.20;;;;;;;16.75;68.56;102005.41;10488839;28;20499;-81
2022/05/21 08:36:25;;;;;;;0.00;0.00;;;;;;;17.44;63.16;102003.09;10482900;28;20037;-82
2022/05/21 08:41:31;;;;;;;1.20;1.02;;;;;;;16.20;66.13;102019.94;10444347;28;20037;-82
2022/05/21 08:46:47;;;;;;;0.03;0.03;;;;;;;16.88;63.99;102019.53;10434419;28;20408;-82
2022/05/21 08:51:56;;;;;;;0.00;0.00;;;;;;;16.81;61.95;102025.47;10438004;28;20053;-83
2022/05/21 08:56:57;;;;;;;0.00;0.00;;;;;;;16.11;65.75;102021.53;10460377;28;20491;-82
2022/05/21 09:01:59;;;;;;;17.02;0.60;;;;;;;16.31;63.20;102028.84;10451380;28;20481;-82
2022/05/21 09:07:07;;;;;;;0.20;0.20;;;;;;;16.36;63.23;102022.00;10443272;28;20050;-82
2022/05/21 09:12:33;;;;;;;0.10;0.10;;;;;;;16.08;65.40;102026.66;10462523;28;20135;-83
2022/05/21 09:17:41;;;;;;;;;;;;;;;16.15;65.58;102028.53;10440744;28;20052;-83
2022/05/21 09:22:53;;;;;;;0.60;0.28;;;;;;;15.96;64.76;102026.41;10457223;28;20306;-82
2022/05/21 09:28:07;;;;;;;0.30;0.20;;;;;;;15.73;65.08;102034.53;10472642;28;20513;-83
2022/05/21 09:33:43;;;;;;;0.25;0.22;;;;;;;16.05;64.53;102030.91;10437822;28;20045;-82
2022/05/21 09:38:53;;;;;;;0.32;0.32;;;;;;;16.24;63.74;102037.38;10445697;28;20065;-82
2022/05/21 09:49:30;;;;;;;1.65;1.23;;;;;;;16.40;62.45;102029.06;10439375;28;20060;-82
2022/05/21 09:54:40;;;;;;;0.00;0.00;;;;;;;16.84;62.27;102037.66;10467504;28;20056;-81
2022/05/21 10:00:00;;;;;;;1.25;0.38;;;;;;;16.38;62.64;102037.69;10448541;28;20079;-82
2022/05/21 10:05:02;;;;;;;0.00;0.00;;;;;;;16.12;63.56;102038.00;10434281;28;20041;-83
2022/05/21 10:15:34;;;;;;;0.00;0.00;;;;;;;15.96;65.01;102057.59;10465537;28;20462;-82
2022/05/21 10:20:41;;;;;;;0.00;0.00;;;;;;;16.13;63.91;102052.75;10468329;28;20478;-82
2022/05/21 10:26:01;;;;;;;0.03;0.00;;;;;;;16.97;61.49;102063.09;10478418;28;20044;-82
2022/05/21 10:31:15;;;;;;;0.00;0.00;;;;;;;16.84;62.00;102048.06;10482798;28;20036;-82
2022/05/21 10:36:45;;;;;;;0.00;0.00;;;;;;;17.15;61.41;102044.31;10433795;28;20049;-83
2022/05/21 10:42:13;;;;;;;0.00;0.00;;;;;;;17.41;60.65;102044.72;10413453;28;20090;-81
2022/05/21 10:47:34;;;;;;;0.00;0.00;;;;;;;17.11;61.26;102053.78;10470216;28;20080;-82
2022/05/21 10:53:07;;;;;;;0.10;0.10;;;;;;;16.84;61.45;102055.88;10465292;28;20098;-80
2022/05/21 10:59:52;;;;;;;0.32;0.30;;;;;;;16.73;61.56;102053.06;10490467;28;20460;-79
2022/05/21 11:05:22;;;;;;;0.00;0.00;;;;;;;16.76;60.51;102048.81;10465320;28;20041;-80
2022/05/21 11:10:49;;;;;;;2.67;1.00;;;;;;;16.83;61.56;102048.91;10447838;28;20091;-80
2022/05/21 11:16:00;;;;;;;0.10;0.10;;;;;;;17.56;59.34;102044.09;10440403;28;20103;-81
2022/05/21 11:21:04;;;;;;;0.47;0.43;;;;;;;17.73;57.83;102056.47;10443456;28;20107;-80
2022/05/21 11:26:19;;;;;;;0.00;0.00;;;;;;;17.38;59.18;102062.03;10439621;28;20045;-78
2022/05/21 11:37:21;;;;;;;0.10;0.10;;;;;;;18.19;58.35;102066.72;10442878;28;20383;-79
2022/05/21 11:42:25;;;;;;;0.20;0.20;;;;;;;17.78;57.37;102060.06;10444688;28;20049;-80
2022/05/21 11:47:27;;;;;;;0.10;0.10;;;;;;;17.18;58.64;102064.31;10447512;28;20103;-80
2022/05/21 11:52:34;;;;;;;5.88;0.47;;;;;;;16.92;57.31;102073.41;10429273;28;20080;-80
2022/05/21 11:57:47;;;;;;;1.95;1.00;;;;;;;16.86;58.53;102078.47;10451763;28;20077;-79
2022/05/21 12:02:53;;;;;;;0.00;0.00;;;;;;;17.54;59.20;102073.56;10430093;28;20053;-80
2022/05/21 12:07:56;;;;;;;6.50;1.08;;;;;;;18.04;58.05;102068.28;10444782;28;20038;-79
2022/05/21 12:13:16;;;;;;;0.70;0.20;;;;;;;18.00;57.79;102073.44;10398930;28;20517;-79
2022/05/21 12:18:37;;;;;;;0.65;0.65;;;;;;;17.38;57.89;102072.47;10409392;28;20786;-80
2022/05/21 12:23:47;;;;;;;1.00;0.38;;;;;;;17.04;58.39;102074.50;10407530;28;20120;-79
2022/05/21 12:29:18;;;;;;;0.40;0.20;;;;;;;17.15;59.62;102069.47;10415422;28;20042;-78
2022/05/21 12:34:23;;;;;;;0.00;0.00;;;;;;;17.49;57.39;102064.81;10415212;28;20457;-80
2022/05/21 12:39:32;;;;;;;0.38;0.38;;;;;;;18.36;56.14;102065.19;10416912;28;20068;-79
2022/05/21 12:44:40;;;;;;;0.28;0.28;;;;;;;18.59;56.65;102061.97;10416460;28;20465;-80
2022/05/21 12:49:50;;;;;;;0.20;0.20;;;;;;;18.03;55.71;102061.31;10415352;28;20033;-79
2022/05/21 12:55:12;;;;;;;0.00;0.00;;;;;;;18.45;57.57;102063.53;10384956;28;20124;-80
2022/05/21 13:00:19;;;;;;;0.00;0.00;;;;;;;18.29;54.92;102055.53;10415015;28;20103;-78
2022/05/21 13:05:31;;;;;;;0.00;0.00;;;;;;;18.58;53.83;102062.81;10414135;28;20052;-79
2022/05/21 13:10:36;;;;;;;0.30;0.10;;;;;;;18.65;51.18;102061.16;10415814;28;20041;-81
2022/05/21 13:15:39;;;;;;;0.00;0.00;;;;;;;19.26;50.49;102066.13;10414273;28;20049;-80
2022/05/21 13:21:08;;;;;;;1.13;0.38;;;;;;;19.22;51.47;102059.13;10409852;28;20147;-79
2022/05/21 13:26:23;;;;;;;0.10;0.10;;;;;;;18.80;54.66;102055.25;10381035;28;20061;-81
2022/05/21 13:31:25;;;;;;;0.00;0.00;;;;;;;18.63;53.78;102063.75;10412932;28;20049;-80
2022/05/21 13:36:31;;;;;;;10.50;1.10;;;;;;;19.68;51.09;102047.28;10412725;28;20502;-80
2022/05/21 13:41:37;;;;;;;0.68;0.55;;;;;;;19.54;52.20;102044.56;10404242;28;20041;-80
2022/05/21 13:46:42;;;;;;;4.53;1.70;;;;;;;19.16;55.57;102043.41;10413052;28;20034;-79
2022/05/21 13:51:50;;;;;;;0.00;0.00;;;;;;;19.00;53.79;102053.72;10410144;28;20422;-81
2022/05/21 13:57:03;;;;;;;0.00;0.00;;;;;;;19.07;54.22;102038.97;10407212;28;20045;-81
2022/05/21 14:02:40;;;;;;;0.00;0.00;;;;;;;18.84;50.11;102043.97;10404125;28;20050;-78
2022/05/21 14:07:51;;;;;;;0.40;0.20;;;;;;;18.66;52.83;102048.13;10399735;28;20042;-79
2022/05/21 14:12:53;;;;;;;0.30;0.30;;;;;;;18.30;54.24;102049.47;10413260;28;20049;-78
2022/05/21 14:18:05;;;;;;;0.45;0.22;;;;;;;18.07;55.74;102049.19;10409564;28;20051;-80
2022/05/21 14:23:26;;;;;;;0.00;0.00;;;;;;;18.19;53.52;102053.69;10399043;28;20095;-80
2022/05/21 14:28:48;;;;;;;0.10;0.05;;;;;;;18.37;52.78;102056.50;10394588;28;20080;-79
2022/05/21 14:33:58;;;;;;;0.00;0.00;;;;;;;18.70;52.72;102044.69;10393229;28;20053;-80
2022/05/21 14:39:00;;;;;;;0.50;0.50;;;;;;;18.55;51.66;102037.56;10411134;28;20045;-82
2022/05/21 14:44:12;;;;;;;0.47;0.40;;;;;;;18.58;52.87;102039.31;10408979;28;20051;-80
2022/05/21 14:49:14;;;;;;;0.00;0.00;;;;;;;19.01;53.06;102023.25;10394683;28;20457;-80
2022/05/21 14:54:16;;;;;;;14.45;0.30;;;;;;;19.22;52.89;102014.72;10393673;28;20564;-81
2022/05/21 14:59:17;;;;;;;0.00;0.00;;;;;;;19.59;53.79;102012.38;10392900;28;20108;-81
2022/05/21 15:04:19;;;;;;;0.10;0.10;;;;;;;19.17;53.37;102003.38;10411065;28;20045;-81
2022/05/21 15:09:20;;;;;;;0.00;0.00;;;;;;;18.84;50.62;102015.22;10410344;28;20076;-80
2022/05/21 15:14:22;;;;;;;0.00;0.00;;;;;;;18.82;52.01;102019.56;10410020;28;20041;-80
2022/05/21 15:19:24;;;;;;;0.00;0.00;;;;;;;18.75;52.61;102020.38;10410044;28;20123;-81
2022/05/21 15:24:25;;;;;;;0.00;0.00;;;;;;;18.63;52.44;102019.41;10393738;28;20054;-82
2022/05/21 15:29:27;;;;;;;0.10;0.10;;;;;;;18.79;53.18;102006.50;10409128;28;20041;-79
2022/05/21 15:34:29;;;;;;;0.00;0.00;;;;;;;18.86;54.82;102003.94;10409667;28;20045;-80
2022/05/21 15:39:31;;;;;;;0.00;0.00;;;;;;;18.68;54.77;101989.00;10411026;28;20048;-81
2022/05/21 15:44:32;;;;;;;0.10;0.10;;;;;;;18.81;56.01;101987.38;10417413;28;20049;-79
2022/05/21 15:49:34;;;;;;;0.10;0.10;;;;;;;18.69;53.39;101993.34;10419940;28;20095;-81
2022/05/21 15:54:44;;;;;;;0.00;0.00;;;;;;;18.51;54.35;101985.31;10419573;28;20048;-80
2022/05/21 15:59:46;;;;;;;0.00;0.00;;;;;;;18.45;55.39;101985.25;10401870;28;20498;-81
2022/05/21 16:04:48;;;;;;;0.22;0.15;;;;;;;18.34;54.97;101987.75;10419207;28;20049;-81
2022/05/21 16:09:52;;;;;;;0.25;0.25;;;;;;;18.28;54.87;101982.47;10413459;28;20056;-82
2022/05/21 16:14:55;;;;;;;0.00;0.00;;;;;;;18.14;54.79;101980.59;10423272;28;20046;-82
2022/05/21 16:19:56;;;;;;;0.00;0.00;;;;;;;18.22;55.18;101984.16;10400346;28;20083;-82
2022/05/21 16:24:58;;;;;;;0.00;0.00;;;;;;;18.35;53.37;101974.75;10418692;28;20076;-80
2022/05/21 16:29:59;;;;;;;0.00;0.00;;;;;;;18.35;53.68;101968.66;10400263;28;20045;-81
2022/05/21 16:35:01;;;;;;;0.00;0.00;;;;;;;18.50;51.81;101973.16;10419053;28;20049;-81
2022/05/21 16:40:03;;;;;;;0.00;0.00;;;;;;;18.49;52.80;101972.28;10433505;28;20107;-82
2022/05/21 16:45:05;;;;;;;0.00;0.00;;;;;;;19.02;51.99;101952.75;10417797;28;20049;-81
2022/05/21 16:50:09;;;;;;;0.20;0.20;;;;;;;18.75;50.47;101953.38;10416754;28;20042;-81
2022/05/21 16:55:11;;;;;;;0.13;0.13;;;;;;;18.54;51.51;101954.91;10415745;28;20049;-82
2022/05/21 17:00:13;;;;;;;0.00;0.00;;;;;;;18.38;51.68;101953.03;10415547;28;20049;-80
2022/05/21 17:05:15;;;;;;;0.00;0.00;;;;;;;18.35;53.77;101959.09;10398621;28;20506;-79
2022/05/21 17:10:17;;;;;;;0.00;0.00;;;;;;;18.42;53.24;101959.16;10397745;28;20064;-81
2022/05/21 17:15:23;;;;;;;0.00;0.00;;;;;;;17.94;53.47;101961.22;10399744;28;20057;-79
2022/05/21 17:20:24;;;;;;;0.70;0.70;;;;;;;18.21;52.02;101956.34;10416247;28;20107;-80
2022/05/21 17:25:26;;;;;;;0.00;0.00;;;;;;;18.49;52.02;101953.16;10397629;28;20080;-80
2022/05/21 17:30:33;;;;;;;0.00;0.00;;;;;;;18.46;50.05;101947.88;10413800;28;20042;-79
2022/05/21 17:35:36;;;;;;;0.00;0.00;;;;;;;18.14;50.85;101954.53;10416431;28;20046;-80
2022/05/21 17:40:38;;;;;;;0.00;0.00;;;;;;;18.21;52.35;101952.84;10400512;28;20045;-79
2022/05/21 17:45:41;;;;;;;0.00;0.00;;;;;;;17.99;53.83;101949.97;10418478;28;20120;-81
2022/05/21 17:50:44;;;;;;;0.00;0.00;;;;;;;17.92;56.51;101953.34;10416283;28;20506;-81
2022/05/21 17:55:47;;;;;;;0.00;0.00;;;;;;;17.60;56.82;101951.22;10400352;28;20057;-79
2022/05/21 18:00:51;;;;;;;0.00;0.00;;;;;;;17.30;57.89;101949.94;10414832;28;20041;-79
2022/05/21 18:05:55;;;;;;;0.00;0.00;;;;;;;17.28;58.75;101949.88;10399545;28;20107;-79
2022/05/21 18:10:57;;;;;;;0.00;0.00;;;;;;;17.18;59.74;101952.34;10399151;28;20053;-80
2022/05/21 18:21:20;;;;;;;0.00;0.00;;;;;;;16.95;60.39;101955.44;10414284;28;20054;-79
2022/05/21 18:26:25;;;;;;;0.00;0.00;;;;;;;16.71;60.72;101954.19;10415941;28;20141;-79
2022/05/21 18:31:29;;;;;;;0.00;0.00;;;;;;;16.53;61.43;101956.44;10383154;28;20041;-80
2022/05/21 18:36:34;;;;;;;0.00;0.00;;;;;;;16.38;61.16;101968.31;10415952;28;20055;-79
2022/05/21 18:41:37;;;;;;;0.00;0.00;;;;;;;16.45;61.58;101958.91;10397735;28;20820;-81
2022/05/21 18:46:41;;;;;;;0.00;0.00;;;;;;;16.39;61.44;101970.06;10399843;28;20087;-80
2022/05/21 18:51:43;;;;;;;0.00;0.00;;;;;;;16.18;62.57;101968.81;10415248;28;20064;-79
2022/05/21 18:56:44;;;;;;;0.00;0.00;;;;;;;15.80;64.47;101971.47;10417467;28;20490;-78
2022/05/21 19:01:46;;;;;;;0.00;0.00;;;;;;;15.97;65.45;101965.78;10392526;28;20499;-79
2022/05/21 19:06:47;;;;;;;0.00;0.00;;;;;;;15.77;65.09;101967.94;10417628;28;20045;-79
2022/05/21 19:11:49;;;;;;;0.00;0.00;;;;;;;15.51;66.83;101971.72;10416252;28;20557;-78
2022/05/21 19:16:51;;;;;;;0.00;0.00;;;;;;;15.31;65.07;101975.56;10417070;28;20327;-80
2022/05/21 19:21:54;;;;;;;0.00;0.00;;;;;;;15.28;65.07;101965.13;10424762;28;20046;-80
2022/05/21 19:26:59;;;;;;;0.00;0.00;;;;;;;15.27;65.78;101971.13;10423817;28;20068;-79
2022/05/21 19:32:03;;;;;;;0.00;0.00;;;;;;;15.04;66.72;101974.06;10406880;28;20049;-79
2022/05/21 19:37:05;;;;;;;0.00;0.00;;;;;;;14.98;66.67;101976.50;10406899;28;20079;-78
2022/05/21 19:42:07;;;;;;;0.00;0.00;;;;;;;14.87;67.27;101979.69;10423357;28;20052;-80
2022/05/21 19:47:10;;;;;;;0.00;0.00;;;;;;;14.88;67.12;101985.78;10423644;28;20110;-79
2022/05/21 19:52:13;;;;;;;0.00;0.00;;;;;;;14.67;68.77;101986.97;10406653;28;20077;-78
2022/05/21 19:57:19;;;;;;;0.00;0.00;;;;;;;14.42;69.57;101998.34;10417342;28;20046;-80
2022/05/21 20:02:22;;;;;;;0.00;0.00;;;;;;;14.32;70.35;102002.41;10422675;28;20053;-80
2022/05/21 20:07:24;;;;;;;0.00;0.00;;;;;;;14.17;71.06;102000.28;10422467;28;20087;-80
2022/05/21 20:12:25;;;;;;;0.00;0.00;;;;;;;14.30;70.37;102009.25;10422428;28;20050;-80
2022/05/21 20:17:27;;;;;;;0.00;0.00;;;;;;;14.25;68.50;102006.56;10423270;28;20045;-78
2022/05/21 20:22:29;;;;;;;0.00;0.00;;;;;;;14.00;69.64;102004.09;10388255;28;20061;-78
2022/05/21 20:27:31;;;;;;;0.00;0.00;;;;;;;13.94;70.72;102003.09;10385841;28;20601;-78
2022/05/21 20:32:33;;;;;;;0.00;0.00;;;;;;;13.88;69.90;102005.50;10424299;28;20045;-79
2022/05/21 20:37:35;;;;;;;0.00;0.00;;;;;;;13.91;69.70;101999.53;10416649;28;20049;-80
2022/05/21 20:42:38;;;;;;;0.00;0.00;;;;;;;13.76;70.16;102005.09;10409181;28;20080;-81
2022/05/21 20:53:01;;;;;;;0.03;0.03;;;;;;;13.33;72.00;102004.59;10432460;28;20053;-80
2022/05/21 20:58:03;;;;;;;0.00;0.00;;;;;;;13.11;74.10;102010.78;10403266;28;20057;-80
2022/05/21 21:03:06;;;;;;;0.00;0.00;;;;;;;12.94;74.17;102005.06;10399845;28;20053;-79
2022/05/21 21:08:07;;;;;;;0.00;0.00;;;;;;;12.83;74.12;102009.88;10415606;28;20042;-79
2022/05/21 21:13:09;;;;;;;0.00;0.00;;;;;;;12.74;74.37;102004.38;10403059;28;20107;-79
2022/05/21 21:18:11;;;;;;;0.00;0.00;;;;;;;12.49;75.59;102000.91;10419363;28;20037;-81
2022/05/21 21:23:15;;;;;;;0.00;0.00;;;;;;;12.42;75.49;101998.94;10420370;28;20045;-79
2022/05/21 21:28:17;;;;;;;0.00;0.00;;;;;;;12.54;74.77;101995.09;10419080;28;20077;-78
2022/05/21 21:33:20;;;;;;;0.00;0.00;;;;;;;12.37;76.16;101991.03;10419685;28;20053;-79
2022/05/21 21:38:21;;;;;;;0.00;0.00;;;;;;;12.02;76.75;101977.69;10418750;28;20099;-80
2022/05/21 21:43:23;;;;;;;0.00;0.00;;;;;;;11.85;76.73;101979.63;10417499;28;20100;-80
2022/05/21 21:48:24;;;;;;;0.38;0.38;;;;;;;11.87;78.01;101978.00;10434715;28;20041;-79
2022/05/21 21:53:26;;;;;;;0.00;0.00;;;;;;;11.83;77.71;101981.25;10434076;28;20522;-80
2022/05/21 22:03:48;;;;;;;0.00;0.00;;;;;;;11.52;79.11;101975.81;10418204;28;20503;-79
2022/05/21 22:08:52;;;;;;;0.00;0.00;;;;;;;11.45;79.44;101965.16;10401722;28;20121;-79
2022/05/21 22:13:54;;;;;;;0.00;0.00;;;;;;;11.39;79.52;101958.09;10401584;28;20111;-79
2022/05/21 22:18:55;;;;;;;0.30;0.30;;;;;;;11.45;79.69;101949.69;10416755;28;20046;-79
2022/05/21 22:23:57;;;;;;;0.00;0.00;;;;;;;11.31;80.54;101957.75;10417696;28;20069;-79
2022/05/21 22:28:59;;;;;;;0.00;0.00;;;;;;;11.25;80.40;101954.94;10416630;28;20557;-81
2022/05/21 22:34:01;;;;;;;0.00;0.00;;;;;;;11.08;79.26;101947.41;10418608;28;20045;-79
2022/05/21 22:39:04;;;;;;;0.00;0.00;;;;;;;11.24;78.56;101946.31;10398895;28;20565;-78
2022/05/21 22:44:06;;;;;;;0.00;0.00;;;;;;;11.12;78.86;101948.41;10414822;28;20092;-79
2022/05/21 22:49:09;;;;;;;0.00;0.00;;;;;;;10.93;79.92;101952.84;10416829;28;20064;-78
2022/05/21 22:54:11;;;;;;;0.00;0.00;;;;;;;10.81;80.83;101959.16;10417214;28;20050;-79
2022/05/21 22:59:12;;;;;;;0.00;0.00;;;;;;;10.70;81.33;101951.84;10417147;28;20528;-79
2022/05/21 23:04:15;;;;;;;0.05;0.05;;;;;;;10.67;81.96;101962.06;10400041;28;20053;-80
2022/05/21 23:09:16;;;;;;;0.00;0.00;;;;;;;10.60;82.00;101966.06;10415985;28;20045;-78
2022/05/21 23:19:38;;;;;;;0.00;0.00;;;;;;;10.45;81.80;101968.88;10413890;28;20084;-79
2022/05/21 23:24:40;;;;;;;0.00;0.00;;;;;;;10.47;81.14;101956.91;10412401;28;20049;-78
2022/05/21 23:29:41;;;;;;;0.00;0.00;;;;;;;10.35;81.25;101956.34;10417312;28;20471;-78
2022/05/21 23:34:44;;;;;;;0.00;0.00;;;;;;;10.16;81.39;101945.22;10453176;28;20041;-80
2022/05/21 23:39:46;;;;;;;0.00;0.00;;;;;;;10.22;81.15;101944.63;10439065;28;20111;-80
2022/05/21 23:44:47;;;;;;;0.00;0.00;;;;;;;10.47;80.84;101941.44;10411292;28;20426;-80
2022/05/21 23:49:49;;;;;;;0.00;0.00;;;;;;;10.13;80.78;101934.81;10393071;28;20069;-81
2022/05/21 23:54:50;;;;;;;0.00;0.00;;;;;;;10.22;81.04;101924.00;10410893;28;20068;-81
2022/05/21 23:59:52;;;;;;;0.00;0.00;;;;;;;10.22;81.95;101923.16;10408575;28;20073;-81
